sensor_id;sensor_type;location;lat;lon;timestamp;P1;durP1;ratioP1;P2;durP2;ratioP2
52894;SDS011;38759;53.396;6.722;2023-02-03T09:34:59;42.35;;;5.65;;
52894;SDS011;38759;53.396;6.722;2023-02-03T09:37:24;54.47;;;6.22;;
52894;SDS011;38759;53.396;6.722;2023-02-03T09:39:53;49.67;;;6.28;;
52894;SDS011;38759;53.396;6.722;2023-02-03T09:42:40;64.00;;;10.25;;
52894;SDS011;38759;53.396;6.722;2023-02-03T09:45:19;60.70;;;9.25;;
52894;SDS011;38759;53.396;6.722;2023-02-03T09:47:56;55.17;;;9.30;;
52894;SDS011;38759;53.396;6.722;2023-02-03T09:50:27;58.00;;;8.73;;
52894;SDS011;38759;53.396;6.722;2023-02-03T09:52:56;52.80;;;8.70;;
52894;SDS011;38759;53.396;6.722;2023-02-03T09:55:31;62.22;;;9.48;;
52894;SDS011;38759;53.396;6.722;2023-02-03T09:58:16;46.08;;;8.40;;
52894;SDS011;38759;53.396;6.722;2023-02-03T10:00:50;62.15;;;9.25;;
52894;SDS011;38759;53.396;6.722;2023-02-03T10:03:37;58.80;;;10.20;;
52894;SDS011;38759;53.396;6.722;2023-02-03T10:19:49;53.70;;;9.43;;
52894;SDS011;38759;53.396;6.722;2023-02-03T10:22:21;60.00;;;8.95;;
52894;SDS011;38759;53.396;6.722;2023-02-03T10:24:56;49.30;;;8.40;;
52894;SDS011;38759;53.396;6.722;2023-02-03T10:27:31;53.78;;;8.52;;
52894;SDS011;38759;53.396;6.722;2023-02-03T10:32:54;60.28;;;9.18;;
52894;SDS011;38759;53.396;6.722;2023-02-03T10:35:34;50.97;;;9.00;;
52894;SDS011;38759;53.396;6.722;2023-02-03T10:38:07;57.55;;;9.40;;
52894;SDS011;38759;53.396;6.722;2023-02-03T10:40:39;51.55;;;9.52;;
52894;SDS011;38759;53.396;6.722;2023-02-03T10:43:05;65.65;;;10.52;;
52894;SDS011;38759;53.396;6.722;2023-02-03T10:45:52;63.78;;;9.70;;
52894;SDS011;38759;53.396;6.722;2023-02-03T10:48:18;62.50;;;10.52;;
52894;SDS011;38759;53.396;6.722;2023-02-03T10:50:45;60.40;;;11.40;;
52894;SDS011;38759;53.396;6.722;2023-02-03T10:55:44;57.05;;;9.80;;
52894;SDS011;38759;53.396;6.722;2023-02-03T10:58:24;58.10;;;10.00;;
52894;SDS011;38759;53.396;6.722;2023-02-03T11:01:04;58.92;;;10.40;;
52894;SDS011;38759;53.396;6.722;2023-02-03T11:03:33;56.08;;;9.52;;
52894;SDS011;38759;53.396;6.722;2023-02-03T11:08:29;61.17;;;10.63;;
52894;SDS011;38759;53.396;6.722;2023-02-03T11:11:00;65.15;;;11.02;;
52894;SDS011;38759;53.396;6.722;2023-02-03T11:13:31;69.45;;;10.63;;
52894;SDS011;38759;53.396;6.722;2023-02-03T11:16:18;62.47;;;10.98;;
52894;SDS011;38759;53.396;6.722;2023-02-03T11:18:55;58.78;;;9.88;;
52894;SDS011;38759;53.396;6.722;2023-02-03T11:23:53;74.15;;;10.98;;
52894;SDS011;38759;53.396;6.722;2023-02-03T11:26:20;60.92;;;10.15;;
52894;SDS011;38759;53.396;6.722;2023-02-03T11:28:50;66.63;;;11.18;;
52894;SDS011;38759;53.396;6.722;2023-02-03T11:31:24;63.30;;;11.00;;
52894;SDS011;38759;53.396;6.722;2023-02-03T11:33:53;53.85;;;10.10;;
52894;SDS011;38759;53.396;6.722;2023-02-03T11:36:26;77.38;;;10.88;;
52894;SDS011;38759;53.396;6.722;2023-02-03T11:39:13;63.20;;;10.75;;
52894;SDS011;38759;53.396;6.722;2023-02-03T11:41:42;55.30;;;9.75;;
52894;SDS011;38759;53.396;6.722;2023-02-03T11:44:15;66.05;;;10.70;;
52894;SDS011;38759;53.396;6.722;2023-02-03T11:46:47;65.22;;;11.02;;
52894;SDS011;38759;53.396;6.722;2023-02-03T11:49:25;58.45;;;10.65;;
52894;SDS011;38759;53.396;6.722;2023-02-03T11:57:26;50.05;;;9.25;;
52894;SDS011;38759;53.396;6.722;2023-02-03T12:00:14;52.75;;;9.32;;
52894;SDS011;38759;53.396;6.722;2023-02-03T12:03:03;46.35;;;8.43;;
52894;SDS011;38759;53.396;6.722;2023-02-03T12:05:58;45.03;;;7.63;;
52894;SDS011;38759;53.396;6.722;2023-02-03T12:20:20;57.40;;;10.00;;
52894;SDS011;38759;53.396;6.722;2023-02-03T12:30:43;55.28;;;10.00;;
52894;SDS011;38759;53.396;6.722;2023-02-03T12:35:59;52.50;;;9.23;;
52894;SDS011;38759;53.396;6.722;2023-02-03T12:38:34;47.33;;;8.02;;
52894;SDS011;38759;53.396;6.722;2023-02-03T12:41:28;46.75;;;8.02;;
52894;SDS011;38759;53.396;6.722;2023-02-03T12:44:07;47.35;;;8.05;;
52894;SDS011;38759;53.396;6.722;2023-02-03T12:46:42;49.42;;;9.00;;
52894;SDS011;38759;53.396;6.722;2023-02-03T12:57:40;46.22;;;8.68;;
52894;SDS011;38759;53.396;6.722;2023-02-03T13:00:15;44.63;;;8.70;;
52894;SDS011;38759;53.396;6.722;2023-02-03T13:03:23;50.70;;;9.77;;
52894;SDS011;38759;53.396;6.722;2023-02-03T13:11:51;56.00;;;10.82;;
52894;SDS011;38759;53.396;6.722;2023-02-03T13:14:27;60.90;;;11.32;;
52894;SDS011;38759;53.396;6.722;2023-02-03T13:17:05;56.83;;;9.88;;
52894;SDS011;38759;53.396;6.722;2023-02-03T13:19:38;66.68;;;10.95;;
52894;SDS011;38759;53.396;6.722;2023-02-03T13:22:12;53.28;;;10.13;;
52894;SDS011;38759;53.396;6.722;2023-02-03T13:24:43;64.00;;;10.60;;
52894;SDS011;38759;53.396;6.722;2023-02-03T13:27:17;52.85;;;8.88;;
52894;SDS011;38759;53.396;6.722;2023-02-03T13:30:10;44.78;;;8.50;;
52894;SDS011;38759;53.396;6.722;2023-02-03T13:43:22;51.78;;;9.77;;
52894;SDS011;38759;53.396;6.722;2023-02-03T13:45:53;49.05;;;9.38;;
52894;SDS011;38759;53.396;6.722;2023-02-03T13:48:21;55.47;;;9.48;;
52894;SDS011;38759;53.396;6.722;2023-02-03T13:51:00;55.45;;;10.77;;
52894;SDS011;38759;53.396;6.722;2023-02-03T13:53:27;57.95;;;10.43;;
52894;SDS011;38759;53.396;6.722;2023-02-03T13:55:58;58.50;;;10.20;;
52894;SDS011;38759;53.396;6.722;2023-02-03T13:58:27;58.03;;;11.07;;
52894;SDS011;38759;53.396;6.722;2023-02-03T14:05:49;56.58;;;11.68;;
52894;SDS011;38759;53.396;6.722;2023-02-03T14:19:03;52.70;;;9.25;;
52894;SDS011;38759;53.396;6.722;2023-02-03T14:21:41;50.03;;;8.65;;
52894;SDS011;38759;53.396;6.722;2023-02-03T14:24:39;50.45;;;8.68;;
52894;SDS011;38759;53.396;6.722;2023-02-03T14:27:42;51.38;;;9.10;;
52894;SDS011;38759;53.396;6.722;2023-02-03T14:30:08;45.65;;;8.68;;
52894;SDS011;38759;53.396;6.722;2023-02-03T14:32:50;44.58;;;9.07;;
52894;SDS011;38759;53.396;6.722;2023-02-03T14:35:29;45.33;;;8.07;;
52894;SDS011;38759;53.396;6.722;2023-02-03T14:37:59;43.63;;;7.93;;
52894;SDS011;38759;53.396;6.722;2023-02-03T14:57:03;55.40;;;9.05;;
52894;SDS011;38759;53.396;6.722;2023-02-03T15:00:02;59.58;;;10.18;;
52894;SDS011;38759;53.396;6.722;2023-02-03T15:02:32;50.10;;;9.13;;
52894;SDS011;38759;53.396;6.722;2023-02-03T15:07:37;52.20;;;9.02;;
52894;SDS011;38759;53.396;6.722;2023-02-03T15:10:19;57.05;;;10.10;;
52894;SDS011;38759;53.396;6.722;2023-02-03T15:12:46;54.50;;;9.40;;
52894;SDS011;38759;53.396;6.722;2023-02-03T15:15:18;54.25;;;9.35;;
52894;SDS011;38759;53.396;6.722;2023-02-03T15:17:48;45.58;;;8.13;;
52894;SDS011;38759;53.396;6.722;2023-02-03T15:20:35;54.20;;;9.10;;
52894;SDS011;38759;53.396;6.722;2023-02-03T15:23:18;52.65;;;8.40;;
52894;SDS011;38759;53.396;6.722;2023-02-03T15:25:51;41.00;;;7.63;;
52894;SDS011;38759;53.396;6.722;2023-02-03T15:28:22;54.83;;;9.15;;
52894;SDS011;38759;53.396;6.722;2023-02-03T15:30:51;52.03;;;8.52;;
52894;SDS011;38759;53.396;6.722;2023-02-03T15:33:24;32.20;;;4.97;;
52894;SDS011;38759;53.396;6.722;2023-02-03T15:35:56;40.58;;;6.00;;
52894;SDS011;38759;53.396;6.722;2023-02-03T15:38:35;51.72;;;9.10;;
52894;SDS011;38759;53.396;6.722;2023-02-03T15:41:03;46.58;;;7.97;;
52894;SDS011;38759;53.396;6.722;2023-02-03T15:43:34;52.30;;;8.07;;
52894;SDS011;38759;53.396;6.722;2023-02-03T15:54:03;54.45;;;9.23;;
52894;SDS011;38759;53.396;6.722;2023-02-03T15:56:56;51.25;;;8.75;;
52894;SDS011;38759;53.396;6.722;2023-02-03T15:59:39;49.93;;;8.53;;
52894;SDS011;38759;53.396;6.722;2023-02-03T16:02:17;49.28;;;6.57;;
52894;SDS011;38759;53.396;6.722;2023-02-03T16:04:45;39.72;;;5.05;;
52894;SDS011;38759;53.396;6.722;2023-02-03T16:07:15;42.55;;;6.75;;
52894;SDS011;38759;53.396;6.722;2023-02-03T16:09:45;64.18;;;6.45;;
52894;SDS011;38759;53.396;6.722;2023-02-03T16:14:55;48.78;;;6.60;;
52894;SDS011;38759;53.396;6.722;2023-02-03T16:17:23;51.33;;;8.88;;
52894;SDS011;38759;53.396;6.722;2023-02-03T16:22:36;38.80;;;5.85;;
52894;SDS011;38759;53.396;6.722;2023-02-03T16:25:18;54.88;;;8.77;;
52894;SDS011;38759;53.396;6.722;2023-02-03T16:27:56;49.58;;;6.68;;
52894;SDS011;38759;53.396;6.722;2023-02-03T16:31:00;45.25;;;5.22;;
52894;SDS011;38759;53.396;6.722;2023-02-03T16:33:47;48.00;;;5.72;;
52894;SDS011;38759;53.396;6.722;2023-02-03T16:36:33;38.10;;;5.03;;
52894;SDS011;38759;53.396;6.722;2023-02-03T16:39:22;52.78;;;8.52;;
52894;SDS011;38759;53.396;6.722;2023-02-03T16:42:14;37.58;;;5.22;;
52894;SDS011;38759;53.396;6.722;2023-02-03T16:44:59;28.38;;;3.90;;
52894;SDS011;38759;53.396;6.722;2023-02-03T16:47:44;39.47;;;7.30;;
52894;SDS011;38759;53.396;6.722;2023-02-03T16:50:29;51.53;;;8.13;;
52894;SDS011;38759;53.396;6.722;2023-02-03T16:53:35;37.88;;;4.70;;
52894;SDS011;38759;53.396;6.722;2023-02-03T16:56:00;42.35;;;4.82;;
52894;SDS011;38759;53.396;6.722;2023-02-03T16:58:28;46.88;;;5.13;;
52894;SDS011;38759;53.396;6.722;2023-02-03T17:00:56;56.20;;;8.77;;
52894;SDS011;38759;53.396;6.722;2023-02-03T17:03:24;35.80;;;5.18;;
52894;SDS011;38759;53.396;6.722;2023-02-03T17:05:52;33.00;;;5.50;;
52894;SDS011;38759;53.396;6.722;2023-02-03T17:08:20;37.40;;;5.07;;
52894;SDS011;38759;53.396;6.722;2023-02-03T17:10:48;52.35;;;8.75;;
52894;SDS011;38759;53.396;6.722;2023-02-03T17:13:14;46.33;;;8.32;;
52894;SDS011;38759;53.396;6.722;2023-02-03T17:15:41;50.50;;;8.55;;
52894;SDS011;38759;53.396;6.722;2023-02-03T17:18:08;44.90;;;7.68;;
52894;SDS011;38759;53.396;6.722;2023-02-03T17:20:35;49.55;;;8.70;;
52894;SDS011;38759;53.396;6.722;2023-02-03T17:23:01;54.58;;;9.25;;
52894;SDS011;38759;53.396;6.722;2023-02-03T17:25:27;56.00;;;9.13;;
52894;SDS011;38759;53.396;6.722;2023-02-03T17:27:53;56.55;;;8.73;;
52894;SDS011;38759;53.396;6.722;2023-02-03T17:30:18;46.40;;;8.85;;
52894;SDS011;38759;53.396;6.722;2023-02-03T17:32:44;42.92;;;7.45;;
52894;SDS011;38759;53.396;6.722;2023-02-03T17:35:10;51.25;;;8.00;;
52894;SDS011;38759;53.396;6.722;2023-02-03T17:37:35;47.47;;;8.25;;
52894;SDS011;38759;53.396;6.722;2023-02-03T17:40:01;40.92;;;7.50;;
52894;SDS011;38759;53.396;6.722;2023-02-03T17:42:28;48.45;;;8.07;;
52894;SDS011;38759;53.396;6.722;2023-02-03T17:44:53;39.80;;;5.90;;
52894;SDS011;38759;53.396;6.722;2023-02-03T17:47:19;40.20;;;5.57;;
52894;SDS011;38759;53.396;6.722;2023-02-03T17:49:45;47.10;;;8.07;;
52894;SDS011;38759;53.396;6.722;2023-02-03T17:52:12;46.80;;;8.40;;
52894;SDS011;38759;53.396;6.722;2023-02-03T17:54:38;36.45;;;4.63;;
52894;SDS011;38759;53.396;6.722;2023-02-03T17:57:03;40.35;;;7.28;;
52894;SDS011;38759;53.396;6.722;2023-02-03T17:59:29;40.60;;;7.15;;
52894;SDS011;38759;53.396;6.722;2023-02-03T18:01:55;38.55;;;7.43;;
52894;SDS011;38759;53.396;6.722;2023-02-03T18:04:21;33.97;;;7.18;;
52894;SDS011;38759;53.396;6.722;2023-02-03T18:06:46;37.50;;;7.03;;
52894;SDS011;38759;53.396;6.722;2023-02-03T18:09:12;45.30;;;7.93;;
52894;SDS011;38759;53.396;6.722;2023-02-03T18:11:40;42.95;;;8.45;;
52894;SDS011;38759;53.396;6.722;2023-02-03T18:14:06;43.53;;;7.13;;
52894;SDS011;38759;53.396;6.722;2023-02-03T18:16:34;40.47;;;8.50;;
52894;SDS011;38759;53.396;6.722;2023-02-03T18:19:01;47.47;;;7.75;;
52894;SDS011;38759;53.396;6.722;2023-02-03T18:21:29;51.35;;;8.32;;
52894;SDS011;38759;53.396;6.722;2023-02-03T18:23:56;39.22;;;6.88;;
52894;SDS011;38759;53.396;6.722;2023-02-03T18:26:27;39.45;;;7.63;;
52894;SDS011;38759;53.396;6.722;2023-02-03T18:28:56;43.75;;;7.25;;
52894;SDS011;38759;53.396;6.722;2023-02-03T18:31:22;49.05;;;7.90;;
52894;SDS011;38759;53.396;6.722;2023-02-03T18:33:49;43.30;;;7.22;;
52894;SDS011;38759;53.396;6.722;2023-02-03T18:36:16;51.55;;;8.85;;
52894;SDS011;38759;53.396;6.722;2023-02-03T18:38:43;41.95;;;5.78;;
52894;SDS011;38759;53.396;6.722;2023-02-03T18:41:15;34.97;;;5.85;;
52894;SDS011;38759;53.396;6.722;2023-02-03T18:43:43;43.28;;;7.13;;
52894;SDS011;38759;53.396;6.722;2023-02-03T18:46:10;51.03;;;6.70;;
52894;SDS011;38759;53.396;6.722;2023-02-03T18:48:39;42.47;;;4.95;;
52894;SDS011;38759;53.396;6.722;2023-02-03T18:51:09;30.98;;;4.50;;
52894;SDS011;38759;53.396;6.722;2023-02-03T18:53:36;41.50;;;4.80;;
52894;SDS011;38759;53.396;6.722;2023-02-03T18:56:06;44.17;;;7.32;;
52894;SDS011;38759;53.396;6.722;2023-02-03T18:58:33;73.78;;;9.95;;
52894;SDS011;38759;53.396;6.722;2023-02-03T19:01:00;56.85;;;9.02;;
52894;SDS011;38759;53.396;6.722;2023-02-03T19:03:26;56.05;;;9.27;;
52894;SDS011;38759;53.396;6.722;2023-02-03T19:05:52;56.00;;;6.50;;
52894;SDS011;38759;53.396;6.722;2023-02-03T19:08:18;44.53;;;6.05;;
52894;SDS011;38759;53.396;6.722;2023-02-03T19:10:45;45.15;;;5.90;;
52894;SDS011;38759;53.396;6.722;2023-02-03T19:13:14;48.83;;;5.82;;
52894;SDS011;38759;53.396;6.722;2023-02-03T19:15:40;71.90;;;10.68;;
52894;SDS011;38759;53.396;6.722;2023-02-03T19:18:06;68.05;;;10.45;;
52894;SDS011;38759;53.396;6.722;2023-02-03T19:20:32;63.10;;;10.07;;
52894;SDS011;38759;53.396;6.722;2023-02-03T19:22:57;54.47;;;9.15;;
52894;SDS011;38759;53.396;6.722;2023-02-03T19:25:23;56.67;;;9.52;;
52894;SDS011;38759;53.396;6.722;2023-02-03T19:27:50;47.83;;;6.55;;
52894;SDS011;38759;53.396;6.722;2023-02-03T19:30:16;60.45;;;6.22;;
52894;SDS011;38759;53.396;6.722;2023-02-03T19:32:41;60.03;;;6.25;;
52894;SDS011;38759;53.396;6.722;2023-02-03T19:35:07;79.65;;;11.05;;
52894;SDS011;38759;53.396;6.722;2023-02-03T19:37:33;73.07;;;10.02;;
52894;SDS011;38759;53.396;6.722;2023-02-03T19:39:59;62.85;;;9.48;;
52894;SDS011;38759;53.396;6.722;2023-02-03T19:42:24;56.42;;;6.55;;
52894;SDS011;38759;53.396;6.722;2023-02-03T19:44:50;57.58;;;6.93;;
52894;SDS011;38759;53.396;6.722;2023-02-03T19:47:16;58.28;;;6.57;;
52894;SDS011;38759;53.396;6.722;2023-02-03T19:49:42;58.30;;;7.05;;
52894;SDS011;38759;53.396;6.722;2023-02-03T19:52:07;70.15;;;9.82;;
52894;SDS011;38759;53.396;6.722;2023-02-03T19:54:34;59.55;;;9.13;;
52894;SDS011;38759;53.396;6.722;2023-02-03T19:57:00;60.63;;;9.82;;
52894;SDS011;38759;53.396;6.722;2023-02-03T19:59:26;57.67;;;6.95;;
52894;SDS011;38759;53.396;6.722;2023-02-03T20:01:52;52.83;;;6.35;;
52894;SDS011;38759;53.396;6.722;2023-02-03T20:04:18;67.60;;;9.85;;
52894;SDS011;38759;53.396;6.722;2023-02-03T20:06:44;51.63;;;6.88;;
52894;SDS011;38759;53.396;6.722;2023-02-03T20:09:09;62.30;;;6.65;;
52894;SDS011;38759;53.396;6.722;2023-02-03T20:11:35;57.97;;;9.88;;
52894;SDS011;38759;53.396;6.722;2023-02-03T20:14:01;61.35;;;7.47;;
52894;SDS011;38759;53.396;6.722;2023-02-03T20:16:27;46.50;;;5.57;;
52894;SDS011;38759;53.396;6.722;2023-02-03T20:18:52;47.97;;;5.20;;
52894;SDS011;38759;53.396;6.722;2023-02-03T20:21:18;61.25;;;9.73;;
52894;SDS011;38759;53.396;6.722;2023-02-03T20:23:44;69.82;;;10.63;;
52894;SDS011;38759;53.396;6.722;2023-02-03T20:26:09;57.60;;;9.60;;
52894;SDS011;38759;53.396;6.722;2023-02-03T20:28:35;59.85;;;7.75;;
52894;SDS011;38759;53.396;6.722;2023-02-03T20:31:01;54.95;;;5.97;;
52894;SDS011;38759;53.396;6.722;2023-02-03T20:33:28;57.17;;;6.18;;
52894;SDS011;38759;53.396;6.722;2023-02-03T20:35:55;41.15;;;5.40;;
52894;SDS011;38759;53.396;6.722;2023-02-03T20:38:21;57.05;;;7.25;;
52894;SDS011;38759;53.396;6.722;2023-02-03T20:40:47;56.50;;;6.15;;
52894;SDS011;38759;53.396;6.722;2023-02-03T20:45:46;64.53;;;9.63;;
52894;SDS011;38759;53.396;6.722;2023-02-03T20:48:13;72.55;;;10.07;;
52894;SDS011;38759;53.396;6.722;2023-02-03T20:50:40;69.65;;;9.45;;
52894;SDS011;38759;53.396;6.722;2023-02-03T20:53:11;67.57;;;11.02;;
52894;SDS011;38759;53.396;6.722;2023-02-03T20:55:39;58.72;;;6.30;;
52894;SDS011;38759;53.396;6.722;2023-02-03T20:58:11;60.92;;;5.88;;
52894;SDS011;38759;53.396;6.722;2023-02-03T21:00:40;54.38;;;6.57;;
52894;SDS011;38759;53.396;6.722;2023-02-03T21:03:08;56.92;;;7.13;;
52894;SDS011;38759;53.396;6.722;2023-02-03T21:05:53;46.75;;;6.15;;
52894;SDS011;38759;53.396;6.722;2023-02-03T21:08:19;53.42;;;5.68;;
52894;SDS011;38759;53.396;6.722;2023-02-03T21:10:45;53.65;;;6.28;;
52894;SDS011;38759;53.396;6.722;2023-02-03T21:15:46;73.20;;;10.07;;
52894;SDS011;38759;53.396;6.722;2023-02-03T21:21:15;55.17;;;6.05;;
52894;SDS011;38759;53.396;6.722;2023-02-03T21:23:44;61.60;;;6.93;;
52894;SDS011;38759;53.396;6.722;2023-02-03T21:26:17;63.00;;;9.63;;
52894;SDS011;38759;53.396;6.722;2023-02-03T21:28:50;47.90;;;6.35;;
52894;SDS011;38759;53.396;6.722;2023-02-03T21:33:58;42.90;;;5.80;;
52894;SDS011;38759;53.396;6.722;2023-02-03T21:36:34;46.95;;;5.65;;
52894;SDS011;38759;53.396;6.722;2023-02-03T21:39:04;73.88;;;9.77;;
52894;SDS011;38759;53.396;6.722;2023-02-03T21:41:47;54.67;;;6.05;;
52894;SDS011;38759;53.396;6.722;2023-02-03T21:44:32;47.88;;;6.03;;
52894;SDS011;38759;53.396;6.722;2023-02-03T21:47:20;60.50;;;10.00;;
52894;SDS011;38759;53.396;6.722;2023-02-03T21:49:46;54.10;;;5.90;;
52894;SDS011;38759;53.396;6.722;2023-02-03T21:52:12;63.67;;;9.32;;
52894;SDS011;38759;53.396;6.722;2023-02-03T21:54:39;74.90;;;9.30;;
52894;SDS011;38759;53.396;6.722;2023-02-03T21:57:11;61.78;;;7.13;;
52894;SDS011;38759;53.396;6.722;2023-02-03T21:59:39;56.78;;;5.78;;
52894;SDS011;38759;53.396;6.722;2023-02-03T22:05:02;49.42;;;6.43;;
52894;SDS011;38759;53.396;6.722;2023-02-03T22:07:28;43.10;;;5.78;;
52894;SDS011;38759;53.396;6.722;2023-02-03T22:09:54;59.88;;;6.43;;
52894;SDS011;38759;53.396;6.722;2023-02-03T22:12:20;69.53;;;9.48;;
52894;SDS011;38759;53.396;6.722;2023-02-03T22:14:45;50.47;;;5.55;;
52894;SDS011;38759;53.396;6.722;2023-02-03T22:17:11;55.90;;;6.10;;
52894;SDS011;38759;53.396;6.722;2023-02-03T22:19:38;60.38;;;6.05;;
52894;SDS011;38759;53.396;6.722;2023-02-03T22:22:04;60.05;;;8.93;;
52894;SDS011;38759;53.396;6.722;2023-02-03T22:24:30;53.92;;;6.60;;
52894;SDS011;38759;53.396;6.722;2023-02-03T22:26:55;68.43;;;7.03;;
52894;SDS011;38759;53.396;6.722;2023-02-03T22:29:24;57.20;;;8.77;;
52894;SDS011;38759;53.396;6.722;2023-02-03T22:31:49;53.60;;;5.60;;
52894;SDS011;38759;53.396;6.722;2023-02-03T22:34:15;54.28;;;5.97;;
52894;SDS011;38759;53.396;6.722;2023-02-03T22:36:43;67.93;;;9.68;;
52894;SDS011;38759;53.396;6.722;2023-02-03T22:39:08;75.72;;;10.35;;
52894;SDS011;38759;53.396;6.722;2023-02-03T22:41:35;54.65;;;6.22;;
52894;SDS011;38759;53.396;6.722;2023-02-03T22:44:00;49.85;;;5.93;;
52894;SDS011;38759;53.396;6.722;2023-02-03T22:46:27;58.72;;;6.25;;
52894;SDS011;38759;53.396;6.722;2023-02-03T22:48:52;57.42;;;6.40;;
52894;SDS011;38759;53.396;6.722;2023-02-03T22:51:18;70.35;;;10.10;;
52894;SDS011;38759;53.396;6.722;2023-02-03T22:53:44;70.05;;;10.20;;
52894;SDS011;38759;53.396;6.722;2023-02-03T22:56:09;71.20;;;6.80;;
52894;SDS011;38759;53.396;6.722;2023-02-03T22:58:35;71.20;;;6.30;;
52894;SDS011;38759;53.396;6.722;2023-02-03T23:01:01;79.47;;;7.13;;
52894;SDS011;38759;53.396;6.722;2023-02-03T23:03:26;67.95;;;10.23;;
52894;SDS011;38759;53.396;6.722;2023-02-03T23:05:55;78.82;;;11.45;;
52894;SDS011;38759;53.396;6.722;2023-02-03T23:08:21;76.00;;;10.38;;
52894;SDS011;38759;53.396;6.722;2023-02-03T23:10:47;65.50;;;7.07;;
52894;SDS011;38759;53.396;6.722;2023-02-03T23:13:13;73.18;;;6.57;;
52894;SDS011;38759;53.396;6.722;2023-02-03T23:15:38;74.53;;;10.50;;
52894;SDS011;38759;53.396;6.722;2023-02-03T23:18:04;64.47;;;9.27;;
52894;SDS011;38759;53.396;6.722;2023-02-03T23:20:30;67.47;;;9.90;;
52894;SDS011;38759;53.396;6.722;2023-02-03T23:22:55;81.13;;;10.95;;
52894;SDS011;38759;53.396;6.722;2023-02-03T23:25:21;59.42;;;7.50;;
52894;SDS011;38759;53.396;6.722;2023-02-03T23:27:47;62.75;;;7.40;;
52894;SDS011;38759;53.396;6.722;2023-02-03T23:30:13;56.58;;;6.53;;
52894;SDS011;38759;53.396;6.722;2023-02-03T23:32:38;60.85;;;6.65;;
52894;SDS011;38759;53.396;6.722;2023-02-03T23:35:05;95.07;;;10.85;;
52894;SDS011;38759;53.396;6.722;2023-02-03T23:37:50;70.72;;;7.70;;
52894;SDS011;38759;53.396;6.722;2023-02-03T23:40:15;85.35;;;11.13;;
52894;SDS011;38759;53.396;6.722;2023-02-03T23:42:42;94.38;;;11.85;;
52894;SDS011;38759;53.396;6.722;2023-02-03T23:45:08;79.15;;;10.38;;
52894;SDS011;38759;53.396;6.722;2023-02-03T23:47:36;91.85;;;11.07;;
52894;SDS011;38759;53.396;6.722;2023-02-03T23:50:07;74.03;;;9.80;;
52894;SDS011;38759;53.396;6.722;2023-02-03T23:52:34;82.82;;;11.13;;
52894;SDS011;38759;53.396;6.722;2023-02-03T23:55:19;54.53;;;6.88;;
52894;SDS011;38759;53.396;6.722;2023-02-03T23:57:45;71.70;;;6.25;;
